sensor_id;sensor_type;location;lat;lon;timestamp;P1;durP1;ratioP1;P2;durP2;ratioP2
39264;SDS011;42646;51.910;7.724;2022-11-20T00:01:31;16.63;;;9.80;;
39264;SDS011;42646;51.910;7.724;2022-11-20T00:04:00;18.08;;;10.20;;
39264;SDS011;42646;51.910;7.724;2022-11-20T00:06:28;15.15;;;9.63;;
39264;SDS011;42646;51.910;7.724;2022-11-20T00:08:59;16.33;;;9.82;;
39264;SDS011;42646;51.910;7.724;2022-11-20T00:11:28;17.25;;;11.00;;
39264;SDS011;42646;51.910;7.724;2022-11-20T00:13:58;15.18;;;9.77;;
39264;SDS011;42646;51.910;7.724;2022-11-20T00:16:27;17.38;;;9.90;;
39264;SDS011;42646;51.910;7.724;2022-11-20T00:18:57;17.02;;;10.68;;
39264;SDS011;42646;51.910;7.724;2022-11-20T00:21:25;15.07;;;10.18;;
39264;SDS011;42646;51.910;7.724;2022-11-20T00:23:54;14.55;;;9.50;;
39264;SDS011;42646;51.910;7.724;2022-11-20T00:26:26;15.25;;;10.02;;
39264;SDS011;42646;51.910;7.724;2022-11-20T00:28:56;15.75;;;9.82;;
39264;SDS011;42646;51.910;7.724;2022-11-20T00:31:25;15.40;;;9.50;;
39264;SDS011;42646;51.910;7.724;2022-11-20T00:33:53;13.73;;;9.20;;
39264;SDS011;42646;51.910;7.724;2022-11-20T00:36:22;15.77;;;9.32;;
39264;SDS011;42646;51.910;7.724;2022-11-20T00:38:52;15.50;;;9.55;;
39264;SDS011;42646;51.910;7.724;2022-11-20T00:41:21;14.43;;;9.00;;
39264;SDS011;42646;51.910;7.724;2022-11-20T00:43:52;18.15;;;10.40;;
39264;SDS011;42646;51.910;7.724;2022-11-20T00:46:21;16.70;;;10.27;;
39264;SDS011;42646;51.910;7.724;2022-11-20T00:48:51;13.98;;;9.43;;
39264;SDS011;42646;51.910;7.724;2022-11-20T00:51:20;15.95;;;9.50;;
39264;SDS011;42646;51.910;7.724;2022-11-20T00:53:50;15.80;;;9.90;;
39264;SDS011;42646;51.910;7.724;2022-11-20T00:56:18;22.13;;;13.13;;
39264;SDS011;42646;51.910;7.724;2022-11-20T00:58:47;22.55;;;13.18;;
39264;SDS011;42646;51.910;7.724;2022-11-20T01:01:19;22.45;;;13.43;;
39264;SDS011;42646;51.910;7.724;2022-11-20T01:03:50;23.05;;;13.13;;
39264;SDS011;42646;51.910;7.724;2022-11-20T01:06:20;20.05;;;12.10;;
39264;SDS011;42646;51.910;7.724;2022-11-20T01:08:51;22.77;;;13.10;;
39264;SDS011;42646;51.910;7.724;2022-11-20T01:11:22;21.88;;;12.82;;
39264;SDS011;42646;51.910;7.724;2022-11-20T01:13:51;20.65;;;12.05;;
39264;SDS011;42646;51.910;7.724;2022-11-20T01:16:24;24.63;;;12.80;;
39264;SDS011;42646;51.910;7.724;2022-11-20T01:18:55;21.65;;;13.30;;
39264;SDS011;42646;51.910;7.724;2022-11-20T01:21:25;22.85;;;12.77;;
39264;SDS011;42646;51.910;7.724;2022-11-20T01:23:54;22.75;;;13.65;;
39264;SDS011;42646;51.910;7.724;2022-11-20T01:26:22;23.42;;;13.70;;
39264;SDS011;42646;51.910;7.724;2022-11-20T01:28:51;24.63;;;13.45;;
39264;SDS011;42646;51.910;7.724;2022-11-20T01:31:23;23.98;;;13.63;;
39264;SDS011;42646;51.910;7.724;2022-11-20T01:33:53;22.00;;;12.75;;
39264;SDS011;42646;51.910;7.724;2022-11-20T01:36:22;20.88;;;12.95;;
39264;SDS011;42646;51.910;7.724;2022-11-20T01:38:52;22.05;;;12.63;;
39264;SDS011;42646;51.910;7.724;2022-11-20T01:41:21;19.95;;;11.57;;
39264;SDS011;42646;51.910;7.724;2022-11-20T01:44:08;20.67;;;11.45;;
39264;SDS011;42646;51.910;7.724;2022-11-20T01:46:39;17.75;;;10.52;;
39264;SDS011;42646;51.910;7.724;2022-11-20T01:49:16;17.25;;;9.95;;
39264;SDS011;42646;51.910;7.724;2022-11-20T01:54:17;16.27;;;9.48;;
39264;SDS011;42646;51.910;7.724;2022-11-20T01:56:50;17.55;;;10.25;;
39264;SDS011;42646;51.910;7.724;2022-11-20T01:59:22;16.65;;;9.73;;
39264;SDS011;42646;51.910;7.724;2022-11-20T02:01:53;16.90;;;10.13;;
39264;SDS011;42646;51.910;7.724;2022-11-20T02:04:22;17.40;;;10.00;;
39264;SDS011;42646;51.910;7.724;2022-11-20T02:06:51;18.05;;;10.98;;
39264;SDS011;42646;51.910;7.724;2022-11-20T02:09:28;18.08;;;10.30;;
39264;SDS011;42646;51.910;7.724;2022-11-20T02:11:56;16.10;;;9.73;;
39264;SDS011;42646;51.910;7.724;2022-11-20T02:14:28;16.05;;;10.43;;
39264;SDS011;42646;51.910;7.724;2022-11-20T02:16:56;17.23;;;10.43;;
39264;SDS011;42646;51.910;7.724;2022-11-20T02:19:26;17.38;;;9.80;;
39264;SDS011;42646;51.910;7.724;2022-11-20T02:21:56;17.25;;;10.32;;
39264;SDS011;42646;51.910;7.724;2022-11-20T02:24:30;17.35;;;10.50;;
39264;SDS011;42646;51.910;7.724;2022-11-20T02:26:59;17.73;;;10.05;;
39264;SDS011;42646;51.910;7.724;2022-11-20T02:29:31;15.88;;;9.90;;
39264;SDS011;42646;51.910;7.724;2022-11-20T02:32:00;14.75;;;9.30;;
39264;SDS011;42646;51.910;7.724;2022-11-20T02:34:31;15.95;;;9.55;;
39264;SDS011;42646;51.910;7.724;2022-11-20T02:36:59;15.40;;;10.35;;
39264;SDS011;42646;51.910;7.724;2022-11-20T02:39:28;16.08;;;9.38;;
39264;SDS011;42646;51.910;7.724;2022-11-20T02:42:00;18.17;;;10.35;;
39264;SDS011;42646;51.910;7.724;2022-11-20T02:44:28;17.00;;;9.93;;
39264;SDS011;42646;51.910;7.724;2022-11-20T02:46:58;16.63;;;9.65;;
39264;SDS011;42646;51.910;7.724;2022-11-20T02:49:26;15.95;;;9.13;;
39264;SDS011;42646;51.910;7.724;2022-11-20T02:51:59;16.35;;;9.68;;
39264;SDS011;42646;51.910;7.724;2022-11-20T02:54:26;14.57;;;9.40;;
39264;SDS011;42646;51.910;7.724;2022-11-20T03:00:41;16.45;;;9.45;;
39264;SDS011;42646;51.910;7.724;2022-11-20T03:03:10;15.25;;;8.82;;
39264;SDS011;42646;51.910;7.724;2022-11-20T03:05:37;16.35;;;9.38;;
39264;SDS011;42646;51.910;7.724;2022-11-20T03:08:06;16.48;;;9.80;;
39264;SDS011;42646;51.910;7.724;2022-11-20T03:10:34;16.27;;;9.82;;
39264;SDS011;42646;51.910;7.724;2022-11-20T03:13:03;19.83;;;11.52;;
39264;SDS011;42646;51.910;7.724;2022-11-20T03:15:31;23.67;;;13.27;;
39264;SDS011;42646;51.910;7.724;2022-11-20T03:17:59;22.92;;;12.90;;
39264;SDS011;42646;51.910;7.724;2022-11-20T03:20:26;22.15;;;13.13;;
39264;SDS011;42646;51.910;7.724;2022-11-20T03:23:00;22.30;;;12.80;;
39264;SDS011;42646;51.910;7.724;2022-11-20T03:25:30;21.25;;;11.60;;
39264;SDS011;42646;51.910;7.724;2022-11-20T03:27:58;17.55;;;10.52;;
39264;SDS011;42646;51.910;7.724;2022-11-20T03:33:46;15.48;;;9.38;;
39264;SDS011;42646;51.910;7.724;2022-11-20T03:36:14;15.48;;;10.27;;
39264;SDS011;42646;51.910;7.724;2022-11-20T03:38:44;15.80;;;9.73;;
39264;SDS011;42646;51.910;7.724;2022-11-20T03:41:13;17.10;;;9.82;;
39264;SDS011;42646;51.910;7.724;2022-11-20T03:43:46;16.80;;;9.50;;
39264;SDS011;42646;51.910;7.724;2022-11-20T03:46:20;15.57;;;9.27;;
39264;SDS011;42646;51.910;7.724;2022-11-20T03:48:48;14.70;;;8.90;;
39264;SDS011;42646;51.910;7.724;2022-11-20T03:51:18;16.67;;;9.32;;
39264;SDS011;42646;51.910;7.724;2022-11-20T03:53:47;15.40;;;9.13;;
39264;SDS011;42646;51.910;7.724;2022-11-20T03:56:17;15.70;;;9.95;;
39264;SDS011;42646;51.910;7.724;2022-11-20T03:58:47;15.15;;;8.98;;
39264;SDS011;42646;51.910;7.724;2022-11-20T04:01:17;15.65;;;9.18;;
39264;SDS011;42646;51.910;7.724;2022-11-20T04:03:48;16.45;;;9.40;;
39264;SDS011;42646;51.910;7.724;2022-11-20T04:06:41;17.42;;;9.43;;
39264;SDS011;42646;51.910;7.724;2022-11-20T04:09:10;15.60;;;10.00;;
39264;SDS011;42646;51.910;7.724;2022-11-20T04:11:39;17.73;;;9.88;;
39264;SDS011;42646;51.910;7.724;2022-11-20T04:14:12;17.77;;;10.07;;
39264;SDS011;42646;51.910;7.724;2022-11-20T04:16:42;16.05;;;9.05;;
39264;SDS011;42646;51.910;7.724;2022-11-20T04:19:14;15.73;;;9.70;;
39264;SDS011;42646;51.910;7.724;2022-11-20T04:21:43;16.05;;;9.48;;
39264;SDS011;42646;51.910;7.724;2022-11-20T04:24:13;18.42;;;10.13;;
39264;SDS011;42646;51.910;7.724;2022-11-20T04:26:41;15.65;;;9.23;;
39264;SDS011;42646;51.910;7.724;2022-11-20T04:29:10;17.65;;;10.02;;
39264;SDS011;42646;51.910;7.724;2022-11-20T04:31:38;15.98;;;9.60;;
39264;SDS011;42646;51.910;7.724;2022-11-20T04:34:06;16.15;;;10.43;;
39264;SDS011;42646;51.910;7.724;2022-11-20T04:36:35;15.43;;;9.82;;
39264;SDS011;42646;51.910;7.724;2022-11-20T04:39:05;17.15;;;10.40;;
39264;SDS011;42646;51.910;7.724;2022-11-20T04:41:34;17.42;;;10.07;;
39264;SDS011;42646;51.910;7.724;2022-11-20T04:44:03;16.42;;;10.57;;
39264;SDS011;42646;51.910;7.724;2022-11-20T04:46:32;20.10;;;10.35;;
39264;SDS011;42646;51.910;7.724;2022-11-20T04:49:02;20.02;;;10.82;;
39264;SDS011;42646;51.910;7.724;2022-11-20T04:51:32;18.65;;;10.98;;
39264;SDS011;42646;51.910;7.724;2022-11-20T04:54:02;17.23;;;10.30;;
39264;SDS011;42646;51.910;7.724;2022-11-20T04:56:30;19.08;;;10.38;;
39264;SDS011;42646;51.910;7.724;2022-11-20T04:58:59;18.55;;;10.18;;
39264;SDS011;42646;51.910;7.724;2022-11-20T05:01:28;19.70;;;10.73;;
39264;SDS011;42646;51.910;7.724;2022-11-20T05:03:57;18.27;;;11.05;;
39264;SDS011;42646;51.910;7.724;2022-11-20T05:06:24;16.83;;;10.52;;
39264;SDS011;42646;51.910;7.724;2022-11-20T05:08:52;21.05;;;11.90;;
39264;SDS011;42646;51.910;7.724;2022-11-20T05:11:21;19.10;;;11.63;;
39264;SDS011;42646;51.910;7.724;2022-11-20T05:13:49;20.90;;;10.88;;
39264;SDS011;42646;51.910;7.724;2022-11-20T05:16:19;19.85;;;10.75;;
39264;SDS011;42646;51.910;7.724;2022-11-20T05:18:48;18.92;;;11.38;;
39264;SDS011;42646;51.910;7.724;2022-11-20T05:21:16;20.88;;;11.05;;
39264;SDS011;42646;51.910;7.724;2022-11-20T05:23:45;19.35;;;11.65;;
39264;SDS011;42646;51.910;7.724;2022-11-20T05:26:15;16.77;;;10.68;;
39264;SDS011;42646;51.910;7.724;2022-11-20T05:28:46;23.73;;;12.20;;
39264;SDS011;42646;51.910;7.724;2022-11-20T05:31:17;20.30;;;11.80;;
39264;SDS011;42646;51.910;7.724;2022-11-20T05:33:53;16.48;;;11.00;;
39264;SDS011;42646;51.910;7.724;2022-11-20T05:36:21;17.70;;;11.65;;
39264;SDS011;42646;51.910;7.724;2022-11-20T05:38:48;18.85;;;11.90;;
39264;SDS011;42646;51.910;7.724;2022-11-20T05:41:19;19.50;;;11.38;;
39264;SDS011;42646;51.910;7.724;2022-11-20T05:43:48;18.42;;;11.40;;
39264;SDS011;42646;51.910;7.724;2022-11-20T05:46:17;19.55;;;11.55;;
39264;SDS011;42646;51.910;7.724;2022-11-20T05:52:12;18.23;;;11.63;;
39264;SDS011;42646;51.910;7.724;2022-11-20T05:54:44;17.77;;;11.40;;
39264;SDS011;42646;51.910;7.724;2022-11-20T05:57:12;19.75;;;12.35;;
39264;SDS011;42646;51.910;7.724;2022-11-20T05:59:42;19.83;;;11.20;;
39264;SDS011;42646;51.910;7.724;2022-11-20T06:02:10;18.48;;;11.15;;
39264;SDS011;42646;51.910;7.724;2022-11-20T06:04:39;19.23;;;10.95;;
39264;SDS011;42646;51.910;7.724;2022-11-20T06:07:07;18.30;;;11.25;;
39264;SDS011;42646;51.910;7.724;2022-11-20T06:09:35;18.25;;;11.43;;
39264;SDS011;42646;51.910;7.724;2022-11-20T06:12:03;18.38;;;11.75;;
39264;SDS011;42646;51.910;7.724;2022-11-20T06:14:31;18.85;;;11.82;;
39264;SDS011;42646;51.910;7.724;2022-11-20T06:17:00;17.95;;;11.07;;
39264;SDS011;42646;51.910;7.724;2022-11-20T06:19:27;17.67;;;11.23;;
39264;SDS011;42646;51.910;7.724;2022-11-20T06:21:56;18.20;;;11.02;;
39264;SDS011;42646;51.910;7.724;2022-11-20T06:24:23;19.75;;;12.30;;
39264;SDS011;42646;51.910;7.724;2022-11-20T06:26:56;18.70;;;11.23;;
39264;SDS011;42646;51.910;7.724;2022-11-20T06:29:24;18.88;;;11.35;;
39264;SDS011;42646;51.910;7.724;2022-11-20T06:32:00;20.02;;;11.30;;
39264;SDS011;42646;51.910;7.724;2022-11-20T06:34:28;17.27;;;11.13;;
39264;SDS011;42646;51.910;7.724;2022-11-20T06:36:55;18.48;;;10.85;;
39264;SDS011;42646;51.910;7.724;2022-11-20T06:39:27;18.92;;;11.65;;
39264;SDS011;42646;51.910;7.724;2022-11-20T06:41:57;19.90;;;12.25;;
39264;SDS011;42646;51.910;7.724;2022-11-20T06:44:25;17.77;;;10.85;;
39264;SDS011;42646;51.910;7.724;2022-11-20T06:46:53;18.33;;;11.85;;
39264;SDS011;42646;51.910;7.724;2022-11-20T06:49:22;20.60;;;11.85;;
39264;SDS011;42646;51.910;7.724;2022-11-20T06:52:16;19.88;;;11.98;;
39264;SDS011;42646;51.910;7.724;2022-11-20T06:54:45;20.20;;;11.48;;
39264;SDS011;42646;51.910;7.724;2022-11-20T06:57:12;18.30;;;11.40;;
39264;SDS011;42646;51.910;7.724;2022-11-20T06:59:41;19.52;;;12.25;;
39264;SDS011;42646;51.910;7.724;2022-11-20T07:02:09;20.20;;;11.77;;
39264;SDS011;42646;51.910;7.724;2022-11-20T07:04:41;22.17;;;11.88;;
39264;SDS011;42646;51.910;7.724;2022-11-20T07:07:09;21.02;;;11.57;;
39264;SDS011;42646;51.910;7.724;2022-11-20T07:09:36;23.00;;;12.10;;
39264;SDS011;42646;51.910;7.724;2022-11-20T07:12:04;23.65;;;12.82;;
39264;SDS011;42646;51.910;7.724;2022-11-20T07:14:35;24.02;;;12.15;;
39264;SDS011;42646;51.910;7.724;2022-11-20T07:17:02;24.67;;;12.18;;
39264;SDS011;42646;51.910;7.724;2022-11-20T07:19:30;22.20;;;12.60;;
39264;SDS011;42646;51.910;7.724;2022-11-20T07:21:59;22.10;;;12.80;;
39264;SDS011;42646;51.910;7.724;2022-11-20T07:24:27;23.83;;;12.35;;
39264;SDS011;42646;51.910;7.724;2022-11-20T07:26:56;22.85;;;12.35;;
39264;SDS011;42646;51.910;7.724;2022-11-20T07:29:24;20.83;;;12.23;;
39264;SDS011;42646;51.910;7.724;2022-11-20T07:31:51;20.13;;;11.90;;
39264;SDS011;42646;51.910;7.724;2022-11-20T07:34:24;21.50;;;12.75;;
39264;SDS011;42646;51.910;7.724;2022-11-20T07:36:51;21.60;;;11.60;;
39264;SDS011;42646;51.910;7.724;2022-11-20T07:39:21;20.40;;;12.13;;
39264;SDS011;42646;51.910;7.724;2022-11-20T07:41:49;21.88;;;12.65;;
39264;SDS011;42646;51.910;7.724;2022-11-20T07:44:17;17.17;;;11.18;;
39264;SDS011;42646;51.910;7.724;2022-11-20T07:46:44;22.98;;;12.45;;
39264;SDS011;42646;51.910;7.724;2022-11-20T07:49:12;20.10;;;12.32;;
39264;SDS011;42646;51.910;7.724;2022-11-20T07:51:39;22.30;;;12.07;;
39264;SDS011;42646;51.910;7.724;2022-11-20T07:54:07;22.35;;;12.18;;
39264;SDS011;42646;51.910;7.724;2022-11-20T07:56:36;21.73;;;11.95;;
39264;SDS011;42646;51.910;7.724;2022-11-20T07:59:08;24.20;;;13.25;;
39264;SDS011;42646;51.910;7.724;2022-11-20T08:01:37;28.80;;;14.75;;
39264;SDS011;42646;51.910;7.724;2022-11-20T08:04:06;27.38;;;13.85;;
39264;SDS011;42646;51.910;7.724;2022-11-20T08:06:34;23.15;;;12.57;;
39264;SDS011;42646;51.910;7.724;2022-11-20T08:09:03;22.63;;;13.27;;
39264;SDS011;42646;51.910;7.724;2022-11-20T08:11:31;23.02;;;12.77;;
39264;SDS011;42646;51.910;7.724;2022-11-20T08:14:22;22.98;;;13.15;;
39264;SDS011;42646;51.910;7.724;2022-11-20T08:16:50;21.35;;;13.32;;
39264;SDS011;42646;51.910;7.724;2022-11-20T08:19:20;23.05;;;13.40;;
39264;SDS011;42646;51.910;7.724;2022-11-20T08:21:48;22.63;;;12.60;;
39264;SDS011;42646;51.910;7.724;2022-11-20T08:24:19;21.30;;;12.73;;
39264;SDS011;42646;51.910;7.724;2022-11-20T08:26:46;22.60;;;14.13;;
39264;SDS011;42646;51.910;7.724;2022-11-20T08:29:15;19.25;;;13.20;;
39264;SDS011;42646;51.910;7.724;2022-11-20T08:31:44;20.75;;;12.70;;
39264;SDS011;42646;51.910;7.724;2022-11-20T08:34:14;18.83;;;11.63;;
39264;SDS011;42646;51.910;7.724;2022-11-20T08:36:44;19.30;;;12.40;;
39264;SDS011;42646;51.910;7.724;2022-11-20T08:39:12;21.25;;;12.65;;
39264;SDS011;42646;51.910;7.724;2022-11-20T08:41:40;19.67;;;12.68;;
39264;SDS011;42646;51.910;7.724;2022-11-20T08:44:07;20.55;;;12.88;;
39264;SDS011;42646;51.910;7.724;2022-11-20T08:46:36;19.02;;;12.23;;
39264;SDS011;42646;51.910;7.724;2022-11-20T08:49:11;20.20;;;12.60;;
39264;SDS011;42646;51.910;7.724;2022-11-20T08:51:41;18.80;;;11.57;;
39264;SDS011;42646;51.910;7.724;2022-11-20T08:54:09;21.88;;;13.13;;
39264;SDS011;42646;51.910;7.724;2022-11-20T08:56:37;20.35;;;13.38;;
39264;SDS011;42646;51.910;7.724;2022-11-20T08:59:04;22.23;;;12.95;;
39264;SDS011;42646;51.910;7.724;2022-11-20T09:01:54;20.50;;;12.93;;
39264;SDS011;42646;51.910;7.724;2022-11-20T09:04:23;20.70;;;12.95;;
39264;SDS011;42646;51.910;7.724;2022-11-20T09:06:51;21.13;;;12.45;;
39264;SDS011;42646;51.910;7.724;2022-11-20T09:09:18;19.50;;;12.68;;
39264;SDS011;42646;51.910;7.724;2022-11-20T09:11:47;19.45;;;13.07;;
39264;SDS011;42646;51.910;7.724;2022-11-20T09:14:16;21.48;;;12.80;;
39264;SDS011;42646;51.910;7.724;2022-11-20T09:16:44;18.83;;;12.57;;
39264;SDS011;42646;51.910;7.724;2022-11-20T09:19:12;21.50;;;13.38;;
39264;SDS011;42646;51.910;7.724;2022-11-20T09:22:01;21.13;;;13.38;;
39264;SDS011;42646;51.910;7.724;2022-11-20T09:27:23;21.88;;;14.32;;
39264;SDS011;42646;51.910;7.724;2022-11-20T09:29:51;21.38;;;14.48;;
39264;SDS011;42646;51.910;7.724;2022-11-20T09:32:18;24.40;;;15.00;;
39264;SDS011;42646;51.910;7.724;2022-11-20T09:34:46;21.13;;;14.50;;
39264;SDS011;42646;51.910;7.724;2022-11-20T09:37:15;23.23;;;14.52;;
39264;SDS011;42646;51.910;7.724;2022-11-20T09:39:43;22.83;;;14.52;;
39264;SDS011;42646;51.910;7.724;2022-11-20T09:42:17;23.33;;;15.18;;
39264;SDS011;42646;51.910;7.724;2022-11-20T09:48:20;21.75;;;13.75;;
39264;SDS011;42646;51.910;7.724;2022-11-20T09:50:59;22.90;;;14.57;;
39264;SDS011;42646;51.910;7.724;2022-11-20T09:53:35;22.42;;;14.70;;
39264;SDS011;42646;51.910;7.724;2022-11-20T09:56:12;23.90;;;14.38;;
39264;SDS011;42646;51.910;7.724;2022-11-20T09:58:50;22.65;;;14.40;;
39264;SDS011;42646;51.910;7.724;2022-11-20T10:01:21;24.17;;;14.90;;
39264;SDS011;42646;51.910;7.724;2022-11-20T10:03:54;23.60;;;14.82;;
39264;SDS011;42646;51.910;7.724;2022-11-20T10:06:27;23.00;;;15.27;;
39264;SDS011;42646;51.910;7.724;2022-11-20T10:09:03;24.02;;;15.60;;
39264;SDS011;42646;51.910;7.724;2022-11-20T10:11:46;22.48;;;14.85;;
39264;SDS011;42646;51.910;7.724;2022-11-20T10:14:26;27.15;;;15.68;;
39264;SDS011;42646;51.910;7.724;2022-11-20T10:17:03;26.05;;;16.05;;
39264;SDS011;42646;51.910;7.724;2022-11-20T10:19:46;24.60;;;16.00;;
39264;SDS011;42646;51.910;7.724;2022-11-20T10:22:28;26.70;;;16.38;;
39264;SDS011;42646;51.910;7.724;2022-11-20T10:25:12;26.60;;;17.65;;
39264;SDS011;42646;51.910;7.724;2022-11-20T10:27:46;26.50;;;17.08;;
39264;SDS011;42646;51.910;7.724;2022-11-20T10:30:23;26.98;;;16.85;;
39264;SDS011;42646;51.910;7.724;2022-11-20T10:33:17;24.85;;;16.02;;
39264;SDS011;42646;51.910;7.724;2022-11-20T10:35:49;26.25;;;16.77;;
39264;SDS011;42646;51.910;7.724;2022-11-20T10:38:23;28.88;;;17.35;;
39264;SDS011;42646;51.910;7.724;2022-11-20T10:40:59;25.35;;;16.45;;
39264;SDS011;42646;51.910;7.724;2022-11-20T10:43:45;28.30;;;17.48;;
39264;SDS011;42646;51.910;7.724;2022-11-20T10:46:14;26.95;;;16.83;;
39264;SDS011;42646;51.910;7.724;2022-11-20T10:48:45;25.60;;;16.50;;
39264;SDS011;42646;51.910;7.724;2022-11-20T10:51:17;24.77;;;15.93;;
39264;SDS011;42646;51.910;7.724;2022-11-20T10:53:58;27.38;;;17.27;;
39264;SDS011;42646;51.910;7.724;2022-11-20T10:56:39;26.23;;;16.33;;
39264;SDS011;42646;51.910;7.724;2022-11-20T10:59:28;29.27;;;17.15;;
39264;SDS011;42646;51.910;7.724;2022-11-20T11:02:15;27.20;;;16.83;;
39264;SDS011;42646;51.910;7.724;2022-11-20T11:04:45;26.40;;;16.58;;
39264;SDS011;42646;51.910;7.724;2022-11-20T11:07:15;27.25;;;16.98;;
39264;SDS011;42646;51.910;7.724;2022-11-20T11:12:16;28.02;;;16.77;;
39264;SDS011;42646;51.910;7.724;2022-11-20T11:14:45;25.60;;;15.68;;
39264;SDS011;42646;51.910;7.724;2022-11-20T11:17:22;24.95;;;15.85;;
39264;SDS011;42646;51.910;7.724;2022-11-20T11:19:56;29.80;;;17.30;;
39264;SDS011;42646;51.910;7.724;2022-11-20T11:22:28;25.45;;;16.33;;
39264;SDS011;42646;51.910;7.724;2022-11-20T11:24:59;26.98;;;17.38;;
39264;SDS011;42646;51.910;7.724;2022-11-20T11:27:28;23.77;;;15.57;;
39264;SDS011;42646;51.910;7.724;2022-11-20T11:30:10;26.05;;;16.33;;
39264;SDS011;42646;51.910;7.724;2022-11-20T11:32:40;24.65;;;15.63;;
39264;SDS011;42646;51.910;7.724;2022-11-20T11:35:18;22.30;;;14.65;;
39264;SDS011;42646;51.910;7.724;2022-11-20T11:37:48;22.40;;;13.98;;
39264;SDS011;42646;51.910;7.724;2022-11-20T11:40:17;22.15;;;14.55;;
39264;SDS011;42646;51.910;7.724;2022-11-20T11:42:52;20.83;;;13.65;;
39264;SDS011;42646;51.910;7.724;2022-11-20T11:45:23;18.67;;;11.65;;
39264;SDS011;42646;51.910;7.724;2022-11-20T11:47:52;17.02;;;10.65;;
39264;SDS011;42646;51.910;7.724;2022-11-20T11:52:55;15.73;;;9.73;;
39264;SDS011;42646;51.910;7.724;2022-11-20T11:55:30;16.30;;;10.77;;
39264;SDS011;42646;51.910;7.724;2022-11-20T11:58:11;13.93;;;9.30;;
39264;SDS011;42646;51.910;7.724;2022-11-20T12:00:49;14.90;;;9.00;;
39264;SDS011;42646;51.910;7.724;2022-11-20T12:03:24;13.07;;;8.50;;
39264;SDS011;42646;51.910;7.724;2022-11-20T12:05:57;13.70;;;8.65;;
39264;SDS011;42646;51.910;7.724;2022-11-20T12:08:27;12.55;;;8.10;;
39264;SDS011;42646;51.910;7.724;2022-11-20T12:11:02;12.90;;;8.15;;
39264;SDS011;42646;51.910;7.724;2022-11-20T12:13:39;11.32;;;6.78;;
39264;SDS011;42646;51.910;7.724;2022-11-20T12:16:12;9.95;;;6.60;;
39264;SDS011;42646;51.910;7.724;2022-11-20T12:18:42;9.30;;;5.78;;
39264;SDS011;42646;51.910;7.724;2022-11-20T12:21:12;9.73;;;6.22;;
39264;SDS011;42646;51.910;7.724;2022-11-20T12:23:53;11.00;;;7.00;;
39264;SDS011;42646;51.910;7.724;2022-11-20T12:26:39;11.90;;;6.97;;
39264;SDS011;42646;51.910;7.724;2022-11-20T12:29:17;12.15;;;7.88;;
39264;SDS011;42646;51.910;7.724;2022-11-20T12:31:58;10.73;;;6.95;;
39264;SDS011;42646;51.910;7.724;2022-11-20T12:34:44;10.27;;;6.80;;
39264;SDS011;42646;51.910;7.724;2022-11-20T12:37:23;11.38;;;6.85;;
39264;SDS011;42646;51.910;7.724;2022-11-20T12:40:02;13.27;;;8.73;;
39264;SDS011;42646;51.910;7.724;2022-11-20T12:42:48;13.60;;;8.77;;
39264;SDS011;42646;51.910;7.724;2022-11-20T12:48:51;12.23;;;8.63;;
39264;SDS011;42646;51.910;7.724;2022-11-20T12:51:35;13.88;;;8.77;;
39264;SDS011;42646;51.910;7.724;2022-11-20T12:57:09;17.75;;;11.02;;
39264;SDS011;42646;51.910;7.724;2022-11-20T12:59:50;21.90;;;11.73;;
39264;SDS011;42646;51.910;7.724;2022-11-20T13:02:36;18.60;;;11.75;;
39264;SDS011;42646;51.910;7.724;2022-11-20T13:05:17;17.55;;;11.45;;
39264;SDS011;42646;51.910;7.724;2022-11-20T13:07:50;18.25;;;11.55;;
39264;SDS011;42646;51.910;7.724;2022-11-20T13:10:21;19.75;;;12.07;;
39264;SDS011;42646;51.910;7.724;2022-11-20T13:12:58;17.92;;;12.00;;
39264;SDS011;42646;51.910;7.724;2022-11-20T13:15:36;19.85;;;13.35;;
39264;SDS011;42646;51.910;7.724;2022-11-20T13:18:13;17.73;;;12.13;;
39264;SDS011;42646;51.910;7.724;2022-11-20T13:20:41;20.30;;;11.57;;
39264;SDS011;42646;51.910;7.724;2022-11-20T13:23:11;19.35;;;12.75;;
39264;SDS011;42646;51.910;7.724;2022-11-20T13:25:49;21.98;;;13.75;;
39264;SDS011;42646;51.910;7.724;2022-11-20T13:28:26;20.10;;;13.27;;
39264;SDS011;42646;51.910;7.724;2022-11-20T13:30:56;21.75;;;14.18;;
39264;SDS011;42646;51.910;7.724;2022-11-20T13:33:28;22.83;;;13.68;;
39264;SDS011;42646;51.910;7.724;2022-11-20T13:35:58;20.73;;;13.65;;
39264;SDS011;42646;51.910;7.724;2022-11-20T13:38:46;23.83;;;14.35;;
39264;SDS011;42646;51.910;7.724;2022-11-20T13:41:23;25.85;;;14.75;;
39264;SDS011;42646;51.910;7.724;2022-11-20T13:44:05;21.83;;;14.13;;
39264;SDS011;42646;51.910;7.724;2022-11-20T13:46:38;22.83;;;14.05;;
39264;SDS011;42646;51.910;7.724;2022-11-20T13:49:18;22.60;;;14.48;;
39264;SDS011;42646;51.910;7.724;2022-11-20T13:51:50;21.77;;;13.95;;
39264;SDS011;42646;51.910;7.724;2022-11-20T13:54:27;23.98;;;14.85;;
39264;SDS011;42646;51.910;7.724;2022-11-20T13:57:25;23.80;;;14.23;;
39264;SDS011;42646;51.910;7.724;2022-11-20T14:00:11;24.60;;;15.82;;
39264;SDS011;42646;51.910;7.724;2022-11-20T14:02:42;25.02;;;14.60;;
39264;SDS011;42646;51.910;7.724;2022-11-20T14:05:17;23.15;;;14.90;;
39264;SDS011;42646;51.910;7.724;2022-11-20T14:07:49;24.40;;;14.75;;
39264;SDS011;42646;51.910;7.724;2022-11-20T14:10:19;26.83;;;15.30;;
39264;SDS011;42646;51.910;7.724;2022-11-20T14:12:55;25.23;;;15.63;;
39264;SDS011;42646;51.910;7.724;2022-11-20T14:15:27;25.05;;;15.00;;
39264;SDS011;42646;51.910;7.724;2022-11-20T14:17:59;25.30;;;16.23;;
39264;SDS011;42646;51.910;7.724;2022-11-20T14:20:39;26.65;;;15.90;;
39264;SDS011;42646;51.910;7.724;2022-11-20T14:23:09;28.02;;;16.15;;
39264;SDS011;42646;51.910;7.724;2022-11-20T14:25:41;24.73;;;15.70;;
39264;SDS011;42646;51.910;7.724;2022-11-20T14:28:11;28.88;;;16.20;;
39264;SDS011;42646;51.910;7.724;2022-11-20T14:30:50;25.85;;;15.85;;
39264;SDS011;42646;51.910;7.724;2022-11-20T14:33:18;24.13;;;15.30;;
39264;SDS011;42646;51.910;7.724;2022-11-20T14:35:54;26.15;;;16.15;;
39264;SDS011;42646;51.910;7.724;2022-11-20T14:41:05;26.45;;;15.93;;
39264;SDS011;42646;51.910;7.724;2022-11-20T14:43:34;25.30;;;15.52;;
39264;SDS011;42646;51.910;7.724;2022-11-20T14:46:04;24.40;;;15.30;;
39264;SDS011;42646;51.910;7.724;2022-11-20T14:48:36;25.65;;;15.80;;
39264;SDS011;42646;51.910;7.724;2022-11-20T14:51:11;25.73;;;15.18;;
39264;SDS011;42646;51.910;7.724;2022-11-20T14:53:52;25.23;;;15.63;;
39264;SDS011;42646;51.910;7.724;2022-11-20T14:56:21;25.92;;;16.27;;
39264;SDS011;42646;51.910;7.724;2022-11-20T14:58:56;25.25;;;15.82;;
39264;SDS011;42646;51.910;7.724;2022-11-20T15:01:25;25.00;;;16.13;;
39264;SDS011;42646;51.910;7.724;2022-11-20T15:04:01;25.50;;;15.82;;
39264;SDS011;42646;51.910;7.724;2022-11-20T15:06:35;25.98;;;15.68;;
39264;SDS011;42646;51.910;7.724;2022-11-20T15:09:04;24.80;;;16.05;;
39264;SDS011;42646;51.910;7.724;2022-11-20T15:11:34;23.98;;;15.40;;
39264;SDS011;42646;51.910;7.724;2022-11-20T15:14:04;23.90;;;14.73;;
39264;SDS011;42646;51.910;7.724;2022-11-20T15:16:34;24.33;;;15.10;;
39264;SDS011;42646;51.910;7.724;2022-11-20T15:19:01;23.13;;;14.65;;
39264;SDS011;42646;51.910;7.724;2022-11-20T15:21:44;24.05;;;15.00;;
39264;SDS011;42646;51.910;7.724;2022-11-20T15:24:12;23.02;;;14.68;;